sensor_id;sensor_type;location;lat;lon;timestamp;P1;durP1;ratioP1;P2;durP2;ratioP2
28772;SDS011;15925;51.222;5.678;2023-04-24T00:00:03;4.10;;;2.47;;
28772;SDS011;15925;51.222;5.678;2023-04-24T00:02:34;9.52;;;2.92;;
28772;SDS011;15925;51.222;5.678;2023-04-24T00:05:03;12.50;;;2.08;;
28772;SDS011;15925;51.222;5.678;2023-04-24T00:07:30;5.53;;;2.22;;
28772;SDS011;15925;51.222;5.678;2023-04-24T00:09:56;7.07;;;2.65;;
28772;SDS011;15925;51.222;5.678;2023-04-24T00:12:22;5.72;;;2.55;;
28772;SDS011;15925;51.222;5.678;2023-04-24T00:14:48;8.05;;;4.03;;
28772;SDS011;15925;51.222;5.678;2023-04-24T00:17:15;7.97;;;2.83;;
28772;SDS011;15925;51.222;5.678;2023-04-24T00:19:40;6.03;;;2.30;;
28772;SDS011;15925;51.222;5.678;2023-04-24T00:22:06;7.37;;;2.50;;
28772;SDS011;15925;51.222;5.678;2023-04-24T00:24:32;4.38;;;2.25;;
28772;SDS011;15925;51.222;5.678;2023-04-24T00:26:58;4.13;;;2.17;;
28772;SDS011;15925;51.222;5.678;2023-04-24T00:29:26;8.93;;;3.45;;
28772;SDS011;15925;51.222;5.678;2023-04-24T00:31:51;7.20;;;3.70;;
28772;SDS011;15925;51.222;5.678;2023-04-24T00:34:17;8.20;;;3.80;;
28772;SDS011;15925;51.222;5.678;2023-04-24T00:36:43;5.73;;;2.93;;
28772;SDS011;15925;51.222;5.678;2023-04-24T00:39:09;5.25;;;2.70;;
28772;SDS011;15925;51.222;5.678;2023-04-24T00:41:35;6.77;;;2.87;;
28772;SDS011;15925;51.222;5.678;2023-04-24T00:44:01;5.60;;;2.67;;
28772;SDS011;15925;51.222;5.678;2023-04-24T00:46:27;11.20;;;2.67;;
28772;SDS011;15925;51.222;5.678;2023-04-24T00:48:53;4.95;;;3.35;;
28772;SDS011;15925;51.222;5.678;2023-04-24T00:51:21;5.15;;;2.53;;
28772;SDS011;15925;51.222;5.678;2023-04-24T00:53:47;7.90;;;3.90;;
28772;SDS011;15925;51.222;5.678;2023-04-24T00:56:13;13.15;;;3.67;;
28772;SDS011;15925;51.222;5.678;2023-04-24T00:58:39;10.20;;;2.85;;
28772;SDS011;15925;51.222;5.678;2023-04-24T01:01:05;6.38;;;2.58;;
28772;SDS011;15925;51.222;5.678;2023-04-24T01:03:32;6.50;;;3.15;;
28772;SDS011;15925;51.222;5.678;2023-04-24T01:08:25;13.95;;;3.42;;
28772;SDS011;15925;51.222;5.678;2023-04-24T01:10:53;16.10;;;3.70;;
28772;SDS011;15925;51.222;5.678;2023-04-24T01:13:19;8.70;;;3.70;;
28772;SDS011;15925;51.222;5.678;2023-04-24T01:18:12;10.45;;;3.78;;
28772;SDS011;15925;51.222;5.678;2023-04-24T01:20:41;22.35;;;4.78;;
28772;SDS011;15925;51.222;5.678;2023-04-24T01:23:09;7.65;;;4.07;;
28772;SDS011;15925;51.222;5.678;2023-04-24T01:25:35;9.15;;;4.97;;
28772;SDS011;15925;51.222;5.678;2023-04-24T01:28:02;11.80;;;4.45;;
28772;SDS011;15925;51.222;5.678;2023-04-24T01:30:30;11.98;;;3.60;;
28772;SDS011;15925;51.222;5.678;2023-04-24T01:32:57;8.32;;;4.30;;
28772;SDS011;15925;51.222;5.678;2023-04-24T01:35:24;10.02;;;4.45;;
28772;SDS011;15925;51.222;5.678;2023-04-24T01:37:50;11.18;;;4.35;;
28772;SDS011;15925;51.222;5.678;2023-04-24T01:40:16;9.50;;;4.67;;
28772;SDS011;15925;51.222;5.678;2023-04-24T01:42:42;9.10;;;4.38;;
28772;SDS011;15925;51.222;5.678;2023-04-24T01:45:09;7.97;;;4.03;;
28772;SDS011;15925;51.222;5.678;2023-04-24T01:47:36;13.88;;;5.45;;
28772;SDS011;15925;51.222;5.678;2023-04-24T01:50:04;12.68;;;5.22;;
28772;SDS011;15925;51.222;5.678;2023-04-24T01:52:31;9.35;;;4.15;;
28772;SDS011;15925;51.222;5.678;2023-04-24T01:55:01;9.55;;;5.03;;
28772;SDS011;15925;51.222;5.678;2023-04-24T01:57:30;9.43;;;4.35;;
28772;SDS011;15925;51.222;5.678;2023-04-24T01:59:57;10.38;;;4.75;;
28772;SDS011;15925;51.222;5.678;2023-04-24T02:02:23;15.40;;;5.32;;
28772;SDS011;15925;51.222;5.678;2023-04-24T02:04:49;18.35;;;5.07;;
28772;SDS011;15925;51.222;5.678;2023-04-24T02:07:16;7.47;;;4.10;;
28772;SDS011;15925;51.222;5.678;2023-04-24T02:09:41;12.97;;;4.63;;
28772;SDS011;15925;51.222;5.678;2023-04-24T02:12:07;14.88;;;5.07;;
28772;SDS011;15925;51.222;5.678;2023-04-24T02:14:33;8.53;;;4.03;;
28772;SDS011;15925;51.222;5.678;2023-04-24T02:16:59;14.37;;;5.13;;
28772;SDS011;15925;51.222;5.678;2023-04-24T02:19:25;11.82;;;5.07;;
28772;SDS011;15925;51.222;5.678;2023-04-24T02:21:51;19.30;;;6.53;;
28772;SDS011;15925;51.222;5.678;2023-04-24T02:24:17;15.32;;;5.20;;
28772;SDS011;15925;51.222;5.678;2023-04-24T02:26:43;11.47;;;4.80;;
28772;SDS011;15925;51.222;5.678;2023-04-24T02:29:09;15.85;;;5.30;;
28772;SDS011;15925;51.222;5.678;2023-04-24T02:31:35;30.60;;;5.23;;
28772;SDS011;15925;51.222;5.678;2023-04-24T02:34:00;14.93;;;6.63;;
28772;SDS011;15925;51.222;5.678;2023-04-24T02:36:26;6.33;;;4.23;;
28772;SDS011;15925;51.222;5.678;2023-04-24T02:38:52;33.37;;;5.27;;
28772;SDS011;15925;51.222;5.678;2023-04-24T02:41:18;11.70;;;5.13;;
28772;SDS011;15925;51.222;5.678;2023-04-24T02:43:44;15.90;;;4.63;;
28772;SDS011;15925;51.222;5.678;2023-04-24T02:46:10;8.27;;;3.67;;
28772;SDS011;15925;51.222;5.678;2023-04-24T02:48:36;12.33;;;4.07;;
28772;SDS011;15925;51.222;5.678;2023-04-24T02:51:02;14.65;;;5.05;;
28772;SDS011;15925;51.222;5.678;2023-04-24T02:53:28;12.02;;;5.68;;
28772;SDS011;15925;51.222;5.678;2023-04-24T02:55:55;9.75;;;3.63;;
28772;SDS011;15925;51.222;5.678;2023-04-24T02:58:21;13.68;;;4.82;;
28772;SDS011;15925;51.222;5.678;2023-04-24T03:00:47;13.05;;;4.93;;
28772;SDS011;15925;51.222;5.678;2023-04-24T03:03:13;13.43;;;4.32;;
28772;SDS011;15925;51.222;5.678;2023-04-24T03:05:40;8.43;;;4.07;;
28772;SDS011;15925;51.222;5.678;2023-04-24T03:08:06;10.80;;;4.57;;
28772;SDS011;15925;51.222;5.678;2023-04-24T03:10:32;5.17;;;3.60;;
28772;SDS011;15925;51.222;5.678;2023-04-24T03:12:57;9.87;;;4.30;;
28772;SDS011;15925;51.222;5.678;2023-04-24T03:15:23;16.10;;;4.30;;
28772;SDS011;15925;51.222;5.678;2023-04-24T03:17:49;8.43;;;3.93;;
28772;SDS011;15925;51.222;5.678;2023-04-24T03:20:15;8.80;;;4.27;;
28772;SDS011;15925;51.222;5.678;2023-04-24T03:22:41;8.45;;;4.15;;
28772;SDS011;15925;51.222;5.678;2023-04-24T03:25:07;19.02;;;4.45;;
28772;SDS011;15925;51.222;5.678;2023-04-24T03:27:34;10.63;;;3.75;;
28772;SDS011;15925;51.222;5.678;2023-04-24T03:30:04;10.60;;;4.55;;
28772;SDS011;15925;51.222;5.678;2023-04-24T03:32:51;5.38;;;3.22;;
28772;SDS011;15925;51.222;5.678;2023-04-24T03:35:22;11.18;;;3.78;;
28772;SDS011;15925;51.222;5.678;2023-04-24T03:37:48;7.35;;;3.25;;
28772;SDS011;15925;51.222;5.678;2023-04-24T03:40:34;12.48;;;3.25;;
28772;SDS011;15925;51.222;5.678;2023-04-24T03:43:03;5.40;;;2.80;;
28772;SDS011;15925;51.222;5.678;2023-04-24T03:45:29;8.50;;;3.90;;
28772;SDS011;15925;51.222;5.678;2023-04-24T03:50:21;8.80;;;3.72;;
28772;SDS011;15925;51.222;5.678;2023-04-24T03:52:47;11.82;;;3.05;;
28772;SDS011;15925;51.222;5.678;2023-04-24T03:55:23;11.90;;;3.22;;
28772;SDS011;15925;51.222;5.678;2023-04-24T03:57:49;12.00;;;3.15;;
28772;SDS011;15925;51.222;5.678;2023-04-24T04:00:20;10.05;;;3.95;;
28772;SDS011;15925;51.222;5.678;2023-04-24T04:02:52;9.93;;;3.75;;
28772;SDS011;15925;51.222;5.678;2023-04-24T04:05:18;6.45;;;3.72;;
28772;SDS011;15925;51.222;5.678;2023-04-24T04:07:44;8.32;;;3.42;;
28772;SDS011;15925;51.222;5.678;2023-04-24T04:10:11;10.43;;;3.88;;
28772;SDS011;15925;51.222;5.678;2023-04-24T04:12:36;10.93;;;4.30;;
28772;SDS011;15925;51.222;5.678;2023-04-24T04:15:02;4.37;;;2.93;;
28772;SDS011;15925;51.222;5.678;2023-04-24T04:17:29;10.15;;;3.95;;
28772;SDS011;15925;51.222;5.678;2023-04-24T04:19:56;6.28;;;3.20;;
28772;SDS011;15925;51.222;5.678;2023-04-24T04:22:22;5.30;;;3.42;;
28772;SDS011;15925;51.222;5.678;2023-04-24T04:24:50;7.13;;;2.58;;
28772;SDS011;15925;51.222;5.678;2023-04-24T04:27:19;5.70;;;3.40;;
28772;SDS011;15925;51.222;5.678;2023-04-24T04:29:58;8.52;;;3.60;;
28772;SDS011;15925;51.222;5.678;2023-04-24T04:32:35;8.40;;;3.92;;
28772;SDS011;15925;51.222;5.678;2023-04-24T04:35:02;20.75;;;3.60;;
28772;SDS011;15925;51.222;5.678;2023-04-24T04:37:31;7.53;;;3.33;;
28772;SDS011;15925;51.222;5.678;2023-04-24T04:40:14;9.30;;;4.13;;
28772;SDS011;15925;51.222;5.678;2023-04-24T04:42:48;7.88;;;3.85;;
28772;SDS011;15925;51.222;5.678;2023-04-24T04:45:19;7.88;;;3.78;;
28772;SDS011;15925;51.222;5.678;2023-04-24T04:48:05;7.40;;;3.85;;
28772;SDS011;15925;51.222;5.678;2023-04-24T04:50:33;10.13;;;3.35;;
28772;SDS011;15925;51.222;5.678;2023-04-24T04:53:04;9.32;;;4.07;;
28772;SDS011;15925;51.222;5.678;2023-04-24T04:55:33;6.78;;;4.20;;
28772;SDS011;15925;51.222;5.678;2023-04-24T04:58:09;12.50;;;3.03;;
28772;SDS011;15925;51.222;5.678;2023-04-24T05:00:36;7.18;;;3.38;;
28772;SDS011;15925;51.222;5.678;2023-04-24T05:03:09;6.78;;;3.03;;
28772;SDS011;15925;51.222;5.678;2023-04-24T05:05:35;8.83;;;3.87;;
28772;SDS011;15925;51.222;5.678;2023-04-24T05:08:01;6.78;;;3.28;;
28772;SDS011;15925;51.222;5.678;2023-04-24T05:10:27;8.25;;;3.97;;
28772;SDS011;15925;51.222;5.678;2023-04-24T05:12:54;6.93;;;3.58;;
28772;SDS011;15925;51.222;5.678;2023-04-24T05:15:20;6.47;;;2.97;;
28772;SDS011;15925;51.222;5.678;2023-04-24T05:17:46;6.47;;;2.93;;
28772;SDS011;15925;51.222;5.678;2023-04-24T05:20:12;7.07;;;3.17;;
28772;SDS011;15925;51.222;5.678;2023-04-24T05:22:40;5.18;;;2.90;;
28772;SDS011;15925;51.222;5.678;2023-04-24T05:25:06;8.57;;;2.47;;
28772;SDS011;15925;51.222;5.678;2023-04-24T05:27:48;6.57;;;2.95;;
28772;SDS011;15925;51.222;5.678;2023-04-24T05:30:16;2.92;;;1.60;;
28772;SDS011;15925;51.222;5.678;2023-04-24T05:32:42;18.57;;;2.00;;
28772;SDS011;15925;51.222;5.678;2023-04-24T05:35:08;2.77;;;2.03;;
28772;SDS011;15925;51.222;5.678;2023-04-24T05:37:35;5.85;;;1.58;;
28772;SDS011;15925;51.222;5.678;2023-04-24T05:40:01;1.80;;;1.10;;
28772;SDS011;15925;51.222;5.678;2023-04-24T05:42:27;5.47;;;1.73;;
28772;SDS011;15925;51.222;5.678;2023-04-24T05:44:52;4.50;;;1.80;;
28772;SDS011;15925;51.222;5.678;2023-04-24T05:47:19;3.22;;;2.10;;
28772;SDS011;15925;51.222;5.678;2023-04-24T05:49:47;2.35;;;1.10;;
28772;SDS011;15925;51.222;5.678;2023-04-24T05:52:13;1.95;;;1.10;;
28772;SDS011;15925;51.222;5.678;2023-04-24T05:54:40;2.17;;;1.08;;
28772;SDS011;15925;51.222;5.678;2023-04-24T05:57:11;7.15;;;1.40;;
28772;SDS011;15925;51.222;5.678;2023-04-24T05:59:57;2.15;;;0.88;;
28772;SDS011;15925;51.222;5.678;2023-04-24T06:02:24;4.15;;;1.33;;
28772;SDS011;15925;51.222;5.678;2023-04-24T06:04:51;0.75;;;0.68;;
28772;SDS011;15925;51.222;5.678;2023-04-24T06:07:17;8.47;;;1.20;;
28772;SDS011;15925;51.222;5.678;2023-04-24T06:09:43;2.10;;;0.85;;
28772;SDS011;15925;51.222;5.678;2023-04-24T06:12:10;0.68;;;0.32;;
28772;SDS011;15925;51.222;5.678;2023-04-24T06:14:49;0.60;;;0.35;;
28772;SDS011;15925;51.222;5.678;2023-04-24T06:17:18;0.90;;;0.55;;
28772;SDS011;15925;51.222;5.678;2023-04-24T06:19:45;0.75;;;0.28;;
28772;SDS011;15925;51.222;5.678;2023-04-24T06:22:11;0.43;;;0.40;;
28772;SDS011;15925;51.222;5.678;2023-04-24T06:24:37;0.50;;;0.30;;
28772;SDS011;15925;51.222;5.678;2023-04-24T06:27:05;0.93;;;0.68;;
28772;SDS011;15925;51.222;5.678;2023-04-24T06:31:58;0.30;;;0.20;;
28772;SDS011;15925;51.222;5.678;2023-04-24T06:34:24;1.00;;;0.65;;
28772;SDS011;15925;51.222;5.678;2023-04-24T06:36:50;0.30;;;0.30;;
28772;SDS011;15925;51.222;5.678;2023-04-24T06:39:16;0.35;;;0.35;;
28772;SDS011;15925;51.222;5.678;2023-04-24T06:41:41;1.13;;;0.83;;
28772;SDS011;15925;51.222;5.678;2023-04-24T06:44:17;0.63;;;0.45;;
28772;SDS011;15925;51.222;5.678;2023-04-24T06:46:43;1.33;;;0.50;;
28772;SDS011;15925;51.222;5.678;2023-04-24T06:49:09;0.60;;;0.60;;
28772;SDS011;15925;51.222;5.678;2023-04-24T06:51:34;0.67;;;0.37;;
28772;SDS011;15925;51.222;5.678;2023-04-24T06:54:00;1.02;;;0.57;;
28772;SDS011;15925;51.222;5.678;2023-04-24T06:56:27;1.52;;;0.50;;
28772;SDS011;15925;51.222;5.678;2023-04-24T06:58:54;0.90;;;0.88;;
28772;SDS011;15925;51.222;5.678;2023-04-24T07:01:20;2.15;;;0.90;;
28772;SDS011;15925;51.222;5.678;2023-04-24T07:03:46;3.77;;;1.77;;
28772;SDS011;15925;51.222;5.678;2023-04-24T07:06:11;5.43;;;1.33;;
28772;SDS011;15925;51.222;5.678;2023-04-24T07:08:37;5.30;;;1.83;;
28772;SDS011;15925;51.222;5.678;2023-04-24T07:11:04;6.63;;;2.47;;
28772;SDS011;15925;51.222;5.678;2023-04-24T07:13:30;3.70;;;1.88;;
28772;SDS011;15925;51.222;5.678;2023-04-24T07:15:56;6.53;;;1.98;;
28772;SDS011;15925;51.222;5.678;2023-04-24T07:18:22;2.67;;;2.05;;
28772;SDS011;15925;51.222;5.678;2023-04-24T07:20:48;7.47;;;2.40;;
28772;SDS011;15925;51.222;5.678;2023-04-24T07:23:17;2.35;;;1.77;;
28772;SDS011;15925;51.222;5.678;2023-04-24T07:25:43;4.10;;;1.83;;
28772;SDS011;15925;51.222;5.678;2023-04-24T07:28:09;3.95;;;2.10;;
28772;SDS011;15925;51.222;5.678;2023-04-24T07:30:35;4.77;;;2.23;;
28772;SDS011;15925;51.222;5.678;2023-04-24T07:33:00;7.40;;;3.37;;
28772;SDS011;15925;51.222;5.678;2023-04-24T07:35:26;9.27;;;2.63;;
28772;SDS011;15925;51.222;5.678;2023-04-24T07:37:52;5.00;;;2.20;;
28772;SDS011;15925;51.222;5.678;2023-04-24T07:40:19;5.03;;;2.50;;
28772;SDS011;15925;51.222;5.678;2023-04-24T07:42:45;5.88;;;2.47;;
28772;SDS011;15925;51.222;5.678;2023-04-24T07:45:13;3.08;;;2.22;;
28772;SDS011;15925;51.222;5.678;2023-04-24T07:47:40;2.95;;;2.13;;
28772;SDS011;15925;51.222;5.678;2023-04-24T07:50:09;8.82;;;2.55;;
28772;SDS011;15925;51.222;5.678;2023-04-24T07:52:35;4.93;;;2.03;;
28772;SDS011;15925;51.222;5.678;2023-04-24T07:55:01;10.77;;;2.53;;
28772;SDS011;15925;51.222;5.678;2023-04-24T07:57:27;4.85;;;2.20;;
28772;SDS011;15925;51.222;5.678;2023-04-24T07:59:53;4.53;;;2.38;;
28772;SDS011;15925;51.222;5.678;2023-04-24T08:02:19;4.07;;;1.95;;
28772;SDS011;15925;51.222;5.678;2023-04-24T08:04:46;5.07;;;1.92;;
28772;SDS011;15925;51.222;5.678;2023-04-24T08:07:12;2.90;;;1.77;;
28772;SDS011;15925;51.222;5.678;2023-04-24T08:09:38;10.67;;;3.37;;
28772;SDS011;15925;51.222;5.678;2023-04-24T08:12:04;7.77;;;2.00;;
28772;SDS011;15925;51.222;5.678;2023-04-24T08:14:30;6.25;;;2.65;;
28772;SDS011;15925;51.222;5.678;2023-04-24T08:16:55;22.67;;;3.47;;
28772;SDS011;15925;51.222;5.678;2023-04-24T08:19:21;7.45;;;2.90;;
28772;SDS011;15925;51.222;5.678;2023-04-24T08:21:47;8.60;;;2.67;;
28772;SDS011;15925;51.222;5.678;2023-04-24T08:24:13;11.87;;;2.83;;
28772;SDS011;15925;51.222;5.678;2023-04-24T08:26:39;10.40;;;2.80;;
28772;SDS011;15925;51.222;5.678;2023-04-24T08:29:05;9.93;;;3.17;;
28772;SDS011;15925;51.222;5.678;2023-04-24T08:31:32;18.27;;;3.15;;
28772;SDS011;15925;51.222;5.678;2023-04-24T08:33:57;6.25;;;3.13;;
28772;SDS011;15925;51.222;5.678;2023-04-24T08:36:25;16.52;;;3.13;;
28772;SDS011;15925;51.222;5.678;2023-04-24T08:38:51;12.73;;;3.40;;
28772;SDS011;15925;51.222;5.678;2023-04-24T08:41:17;8.35;;;2.45;;
28772;SDS011;15925;51.222;5.678;2023-04-24T08:43:45;4.50;;;2.00;;
28772;SDS011;15925;51.222;5.678;2023-04-24T08:46:11;14.55;;;2.22;;
28772;SDS011;15925;51.222;5.678;2023-04-24T08:48:38;10.18;;;1.92;;
28772;SDS011;15925;51.222;5.678;2023-04-24T08:51:06;6.95;;;2.10;;
28772;SDS011;15925;51.222;5.678;2023-04-24T08:53:33;7.95;;;2.45;;
28772;SDS011;15925;51.222;5.678;2023-04-24T08:55:59;4.32;;;2.33;;
28772;SDS011;15925;51.222;5.678;2023-04-24T08:58:27;13.43;;;2.83;;
28772;SDS011;15925;51.222;5.678;2023-04-24T09:00:54;12.75;;;2.88;;
28772;SDS011;15925;51.222;5.678;2023-04-24T09:03:20;5.43;;;2.15;;
28772;SDS011;15925;51.222;5.678;2023-04-24T09:05:47;10.45;;;1.52;;
28772;SDS011;15925;51.222;5.678;2023-04-24T09:08:14;9.75;;;3.05;;
28772;SDS011;15925;51.222;5.678;2023-04-24T09:10:42;6.63;;;1.85;;
28772;SDS011;15925;51.222;5.678;2023-04-24T09:13:08;9.43;;;1.83;;
28772;SDS011;15925;51.222;5.678;2023-04-24T09:15:36;6.07;;;1.38;;
28772;SDS011;15925;51.222;5.678;2023-04-24T09:18:05;6.20;;;1.40;;
28772;SDS011;15925;51.222;5.678;2023-04-24T09:20:31;7.13;;;2.03;;
28772;SDS011;15925;51.222;5.678;2023-04-24T09:22:57;5.22;;;1.40;;
28772;SDS011;15925;51.222;5.678;2023-04-24T09:25:32;7.55;;;1.33;;
28772;SDS011;15925;51.222;5.678;2023-04-24T09:30:27;8.32;;;1.75;;
28772;SDS011;15925;51.222;5.678;2023-04-24T09:33:09;9.00;;;1.52;;
28772;SDS011;15925;51.222;5.678;2023-04-24T09:35:36;4.90;;;1.75;;
28772;SDS011;15925;51.222;5.678;2023-04-24T09:38:05;5.10;;;1.58;;
28772;SDS011;15925;51.222;5.678;2023-04-24T09:40:30;5.87;;;1.97;;
28772;SDS011;15925;51.222;5.678;2023-04-24T09:43:00;12.48;;;1.45;;
28772;SDS011;15925;51.222;5.678;2023-04-24T09:45:28;6.88;;;2.22;;
28772;SDS011;15925;51.222;5.678;2023-04-24T09:48:01;14.82;;;2.15;;
28772;SDS011;15925;51.222;5.678;2023-04-24T09:50:27;13.73;;;2.03;;
28772;SDS011;15925;51.222;5.678;2023-04-24T09:53:06;6.10;;;3.00;;
28772;SDS011;15925;51.222;5.678;2023-04-24T09:55:39;8.77;;;2.10;;
28772;SDS011;15925;51.222;5.678;2023-04-24T09:58:09;5.78;;;1.80;;
28772;SDS011;15925;51.222;5.678;2023-04-24T10:00:35;10.30;;;2.30;;
28772;SDS011;15925;51.222;5.678;2023-04-24T10:03:02;0.83;;;0.80;;
28772;SDS011;15925;51.222;5.678;2023-04-24T10:05:31;3.67;;;1.52;;
28772;SDS011;15925;51.222;5.678;2023-04-24T10:08:00;13.18;;;2.00;;
28772;SDS011;15925;51.222;5.678;2023-04-24T10:10:30;8.70;;;1.90;;
28772;SDS011;15925;51.222;5.678;2023-04-24T10:12:57;2.63;;;0.90;;
28772;SDS011;15925;51.222;5.678;2023-04-24T10:15:24;6.78;;;1.65;;
28772;SDS011;15925;51.222;5.678;2023-04-24T10:17:51;12.52;;;2.40;;
28772;SDS011;15925;51.222;5.678;2023-04-24T10:20:22;4.00;;;0.80;;
28772;SDS011;15925;51.222;5.678;2023-04-24T10:22:49;4.60;;;1.30;;
28772;SDS011;15925;51.222;5.678;2023-04-24T10:25:21;14.73;;;2.20;;
28772;SDS011;15925;51.222;5.678;2023-04-24T10:27:49;9.85;;;1.52;;
28772;SDS011;15925;51.222;5.678;2023-04-24T10:30:16;8.05;;;0.80;;
28772;SDS011;15925;51.222;5.678;2023-04-24T10:32:43;7.53;;;1.85;;
28772;SDS011;15925;51.222;5.678;2023-04-24T10:35:10;4.93;;;0.70;;
28772;SDS011;15925;51.222;5.678;2023-04-24T10:37:45;4.90;;;0.57;;
28772;SDS011;15925;51.222;5.678;2023-04-24T10:40:18;15.48;;;2.78;;
28772;SDS011;15925;51.222;5.678;2023-04-24T10:42:51;1.30;;;1.00;;
28772;SDS011;15925;51.222;5.678;2023-04-24T10:45:19;0.82;;;0.80;;
28772;SDS011;15925;51.222;5.678;2023-04-24T10:47:59;12.60;;;1.77;;
28772;SDS011;15925;51.222;5.678;2023-04-24T10:50:28;2.70;;;1.20;;
28772;SDS011;15925;51.222;5.678;2023-04-24T10:53:07;4.70;;;0.98;;
28772;SDS011;15925;51.222;5.678;2023-04-24T10:55:44;12.40;;;1.30;;
28772;SDS011;15925;51.222;5.678;2023-04-24T10:58:10;5.88;;;1.63;;
28772;SDS011;15925;51.222;5.678;2023-04-24T11:00:40;1.17;;;1.08;;
28772;SDS011;15925;51.222;5.678;2023-04-24T11:03:12;6.18;;;2.58;;
28772;SDS011;15925;51.222;5.678;2023-04-24T11:06:12;7.47;;;0.60;;
28772;SDS011;15925;51.222;5.678;2023-04-24T11:08:38;6.35;;;0.85;;
28772;SDS011;15925;51.222;5.678;2023-04-24T11:22:00;2.30;;;0.65;;
28772;SDS011;15925;51.222;5.678;2023-04-24T11:26:57;6.18;;;0.57;;
28772;SDS011;15925;51.222;5.678;2023-04-24T11:29:39;3.97;;;0.60;;
28772;SDS011;15925;51.222;5.678;2023-04-24T11:32:17;0.88;;;0.60;;
28772;SDS011;15925;51.222;5.678;2023-04-24T11:35:26;2.22;;;0.43;;
28772;SDS011;15925;51.222;5.678;2023-04-24T11:37:37;1.40;;;0.60;;
28772;SDS011;15925;51.222;5.678;2023-04-24T11:40:07;3.63;;;0.63;;
28772;SDS011;15925;51.222;5.678;2023-04-24T11:42:35;1.90;;;0.75;;
28772;SDS011;15925;51.222;5.678;2023-04-24T11:45:01;11.25;;;1.08;;
28772;SDS011;15925;51.222;5.678;2023-04-24T11:47:32;1.20;;;0.55;;
28772;SDS011;15925;51.222;5.678;2023-04-24T11:49:59;4.30;;;0.70;;
28772;SDS011;15925;51.222;5.678;2023-04-24T11:52:29;7.18;;;0.57;;
28772;SDS011;15925;51.222;5.678;2023-04-24T11:54:55;5.30;;;0.82;;
28772;SDS011;15925;51.222;5.678;2023-04-24T11:57:21;2.83;;;0.90;;
28772;SDS011;15925;51.222;5.678;2023-04-24T11:59:49;7.07;;;0.70;;
28772;SDS011;15925;51.222;5.678;2023-04-24T12:02:21;10.68;;;0.63;;
28772;SDS011;15925;51.222;5.678;2023-04-24T12:04:48;1.90;;;0.70;;
28772;SDS011;15925;51.222;5.678;2023-04-24T12:07:14;1.67;;;0.82;;
28772;SDS011;15925;51.222;5.678;2023-04-24T12:09:40;1.00;;;0.52;;
28772;SDS011;15925;51.222;5.678;2023-04-24T12:12:11;2.60;;;0.80;;
28772;SDS011;15925;51.222;5.678;2023-04-24T12:15:00;4.13;;;0.70;;
28772;SDS011;15925;51.222;5.678;2023-04-24T12:17:32;4.22;;;0.77;;
28772;SDS011;15925;51.222;5.678;2023-04-24T12:20:00;3.60;;;1.27;;
28772;SDS011;15925;51.222;5.678;2023-04-24T12:25:29;5.75;;;0.93;;
28772;SDS011;15925;51.222;5.678;2023-04-24T12:30:28;4.07;;;0.98;;
28772;SDS011;15925;51.222;5.678;2023-04-24T12:32:57;9.52;;;0.90;;
28772;SDS011;15925;51.222;5.678;2023-04-24T12:35:25;2.70;;;0.82;;
28772;SDS011;15925;51.222;5.678;2023-04-24T12:37:52;5.30;;;0.80;;
28772;SDS011;15925;51.222;5.678;2023-04-24T12:40:19;2.33;;;0.70;;
28772;SDS011;15925;51.222;5.678;2023-04-24T12:42:50;0.82;;;0.38;;
28772;SDS011;15925;51.222;5.678;2023-04-24T12:45:17;0.95;;;0.60;;
28772;SDS011;15925;51.222;5.678;2023-04-24T12:47:44;4.70;;;0.65;;
28772;SDS011;15925;51.222;5.678;2023-04-24T12:50:11;5.45;;;0.98;;
28772;SDS011;15925;51.222;5.678;2023-04-24T12:52:38;5.65;;;0.65;;
28772;SDS011;15925;51.222;5.678;2023-04-24T12:55:05;3.58;;;0.55;;
28772;SDS011;15925;51.222;5.678;2023-04-24T12:57:33;3.35;;;0.65;;
28772;SDS011;15925;51.222;5.678;2023-04-24T13:00:00;4.80;;;0.45;;
28772;SDS011;15925;51.222;5.678;2023-04-24T13:02:27;10.90;;;0.55;;
28772;SDS011;15925;51.222;5.678;2023-04-24T13:04:55;2.30;;;0.60;;
28772;SDS011;15925;51.222;5.678;2023-04-24T13:07:21;2.22;;;0.63;;
28772;SDS011;15925;51.222;5.678;2023-04-24T13:09:48;1.53;;;0.27;;
28772;SDS011;15925;51.222;5.678;2023-04-24T13:12:15;3.67;;;0.50;;
28772;SDS011;15925;51.222;5.678;2023-04-24T13:14:41;1.90;;;0.52;;
28772;SDS011;15925;51.222;5.678;2023-04-24T13:17:07;4.63;;;0.75;;
28772;SDS011;15925;51.222;5.678;2023-04-24T13:19:39;4.90;;;0.53;;
28772;SDS011;15925;51.222;5.678;2023-04-24T13:22:06;2.05;;;0.93;;
28772;SDS011;15925;51.222;5.678;2023-04-24T13:24:33;1.05;;;0.65;;
28772;SDS011;15925;51.222;5.678;2023-04-24T13:26:59;0.53;;;0.50;;
28772;SDS011;15925;51.222;5.678;2023-04-24T13:29:26;0.88;;;0.75;;
28772;SDS011;15925;51.222;5.678;2023-04-24T13:31:52;2.90;;;0.30;;
28772;SDS011;15925;51.222;5.678;2023-04-24T13:34:20;1.52;;;0.70;;
28772;SDS011;15925;51.222;5.678;2023-04-24T13:36:46;0.98;;;0.63;;
28772;SDS011;15925;51.222;5.678;2023-04-24T13:39:12;6.38;;;0.88;;
28772;SDS011;15925;51.222;5.678;2023-04-24T13:41:38;0.67;;;0.67;;
28772;SDS011;15925;51.222;5.678;2023-04-24T13:46:31;3.58;;;1.15;;
28772;SDS011;15925;51.222;5.678;2023-04-24T13:48:57;4.47;;;0.70;;
28772;SDS011;15925;51.222;5.678;2023-04-24T13:51:23;2.47;;;0.50;;
28772;SDS011;15925;51.222;5.678;2023-04-24T13:53:53;0.57;;;0.43;;
28772;SDS011;15925;51.222;5.678;2023-04-24T13:56:19;1.40;;;0.50;;
28772;SDS011;15925;51.222;5.678;2023-04-24T13:58:45;7.50;;;0.90;;
28772;SDS011;15925;51.222;5.678;2023-04-24T14:01:11;4.78;;;0.55;;
28772;SDS011;15925;51.222;5.678;2023-04-24T14:06:05;9.63;;;0.88;;
28772;SDS011;15925;51.222;5.678;2023-04-24T14:08:31;11.33;;;1.13;;
28772;SDS011;15925;51.222;5.678;2023-04-24T14:10:57;11.32;;;0.68;;
28772;SDS011;15925;51.222;5.678;2023-04-24T14:13:23;0.30;;;0.30;;
28772;SDS011;15925;51.222;5.678;2023-04-24T14:15:49;0.57;;;0.50;;
28772;SDS011;15925;51.222;5.678;2023-04-24T14:18:15;0.55;;;0.43;;
28772;SDS011;15925;51.222;5.678;2023-04-24T14:20:42;0.50;;;0.40;;
28772;SDS011;15925;51.222;5.678;2023-04-24T14:23:08;0.70;;;0.60;;
28772;SDS011;15925;51.222;5.678;2023-04-24T14:25:33;0.33;;;0.33;;
28772;SDS011;15925;51.222;5.678;2023-04-24T14:27:59;2.57;;;0.47;;
28772;SDS011;15925;51.222;5.678;2023-04-24T14:30:25;1.10;;;0.70;;
28772;SDS011;15925;51.222;5.678;2023-04-24T14:32:51;0.40;;;0.40;;
28772;SDS011;15925;51.222;5.678;2023-04-24T14:35:17;2.50;;;0.80;;
28772;SDS011;15925;51.222;5.678;2023-04-24T14:37:43;1.67;;;0.77;;
28772;SDS011;15925;51.222;5.678;2023-04-24T14:40:08;1.23;;;1.00;;
28772;SDS011;15925;51.222;5.678;2023-04-24T14:42:35;1.50;;;0.90;;
28772;SDS011;15925;51.222;5.678;2023-04-24T14:45:01;1.70;;;1.07;;
28772;SDS011;15925;51.222;5.678;2023-04-24T14:47:27;2.83;;;1.00;;
28772;SDS011;15925;51.222;5.678;2023-04-24T14:52:19;0.90;;;0.80;;
28772;SDS011;15925;51.222;5.678;2023-04-24T14:54:45;2.67;;;1.10;;
28772;SDS011;15925;51.222;5.678;2023-04-24T14:57:11;8.35;;;0.77;;
28772;SDS011;15925;51.222;5.678;2023-04-24T14:59:37;6.00;;;0.77;;
28772;SDS011;15925;51.222;5.678;2023-04-24T15:02:03;2.30;;;0.60;;
28772;SDS011;15925;51.222;5.678;2023-04-24T15:04:29;6.73;;;0.53;;
28772;SDS011;15925;51.222;5.678;2023-04-24T15:06:56;0.52;;;0.50;;
28772;SDS011;15925;51.222;5.678;2023-04-24T15:09:22;2.93;;;0.70;;
28772;SDS011;15925;51.222;5.678;2023-04-24T15:11:49;3.50;;;0.50;;
28772;SDS011;15925;51.222;5.678;2023-04-24T15:14:15;2.95;;;0.88;;
28772;SDS011;15925;51.222;5.678;2023-04-24T15:16:41;8.32;;;0.77;;
28772;SDS011;15925;51.222;5.678;2023-04-24T15:19:07;1.90;;;0.73;;
28772;SDS011;15925;51.222;5.678;2023-04-24T15:21:33;2.05;;;0.88;;
28772;SDS011;15925;51.222;5.678;2023-04-24T15:24:00;4.15;;;0.63;;
28772;SDS011;15925;51.222;5.678;2023-04-24T15:26:26;3.17;;;1.03;;